sensor_id;sensor_type;location;lat;lon;timestamp;P1;durP1;ratioP1;P2;durP2;ratioP2
31270;SDS011;17904;47.420;9.310;2023-02-11T00:01:48;23.85;;;13.35;;
31270;SDS011;17904;47.420;9.310;2023-02-11T00:04:16;29.80;;;14.10;;
31270;SDS011;17904;47.420;9.310;2023-02-11T00:06:42;21.55;;;12.52;;
31270;SDS011;17904;47.420;9.310;2023-02-11T00:09:09;26.50;;;13.20;;
31270;SDS011;17904;47.420;9.310;2023-02-11T00:11:36;31.33;;;15.63;;
31270;SDS011;17904;47.420;9.310;2023-02-11T00:14:04;25.48;;;13.30;;
31270;SDS011;17904;47.420;9.310;2023-02-11T00:16:33;29.55;;;14.38;;
31270;SDS011;17904;47.420;9.310;2023-02-11T00:19:00;24.85;;;13.77;;
31270;SDS011;17904;47.420;9.310;2023-02-11T00:21:28;27.13;;;12.95;;
31270;SDS011;17904;47.420;9.310;2023-02-11T00:23:55;25.38;;;13.40;;
31270;SDS011;17904;47.420;9.310;2023-02-11T00:26:24;24.13;;;13.10;;
31270;SDS011;17904;47.420;9.310;2023-02-11T00:28:53;27.75;;;14.23;;
31270;SDS011;17904;47.420;9.310;2023-02-11T00:31:21;29.20;;;14.23;;
31270;SDS011;17904;47.420;9.310;2023-02-11T00:33:49;26.48;;;13.02;;
31270;SDS011;17904;47.420;9.310;2023-02-11T00:36:20;28.05;;;13.38;;
31270;SDS011;17904;47.420;9.310;2023-02-11T00:38:50;28.55;;;13.95;;
31270;SDS011;17904;47.420;9.310;2023-02-11T00:41:18;28.50;;;12.68;;
31270;SDS011;17904;47.420;9.310;2023-02-11T00:43:45;30.90;;;12.38;;
31270;SDS011;17904;47.420;9.310;2023-02-11T00:48:39;27.40;;;12.98;;
31270;SDS011;17904;47.420;9.310;2023-02-11T00:51:06;21.70;;;12.70;;
31270;SDS011;17904;47.420;9.310;2023-02-11T00:53:33;31.45;;;14.43;;
31270;SDS011;17904;47.420;9.310;2023-02-11T00:56:00;25.15;;;12.45;;
31270;SDS011;17904;47.420;9.310;2023-02-11T00:58:27;21.15;;;12.32;;
31270;SDS011;17904;47.420;9.310;2023-02-11T01:00:54;21.40;;;11.40;;
31270;SDS011;17904;47.420;9.310;2023-02-11T01:03:22;24.13;;;12.30;;
31270;SDS011;17904;47.420;9.310;2023-02-11T01:05:49;20.17;;;11.27;;
31270;SDS011;17904;47.420;9.310;2023-02-11T01:08:16;19.50;;;11.15;;
31270;SDS011;17904;47.420;9.310;2023-02-11T01:10:43;23.33;;;11.75;;
31270;SDS011;17904;47.420;9.310;2023-02-11T01:13:10;20.98;;;11.30;;
31270;SDS011;17904;47.420;9.310;2023-02-11T01:15:37;25.85;;;13.32;;
31270;SDS011;17904;47.420;9.310;2023-02-11T01:18:04;25.02;;;13.30;;
31270;SDS011;17904;47.420;9.310;2023-02-11T01:20:31;28.48;;;13.20;;
31270;SDS011;17904;47.420;9.310;2023-02-11T01:22:58;25.58;;;13.25;;
31270;SDS011;17904;47.420;9.310;2023-02-11T01:25:25;23.90;;;12.55;;
31270;SDS011;17904;47.420;9.310;2023-02-11T01:27:52;22.35;;;12.63;;
31270;SDS011;17904;47.420;9.310;2023-02-11T01:30:18;26.00;;;12.73;;
31270;SDS011;17904;47.420;9.310;2023-02-11T01:32:45;29.67;;;15.07;;
31270;SDS011;17904;47.420;9.310;2023-02-11T01:35:12;30.50;;;14.82;;
31270;SDS011;17904;47.420;9.310;2023-02-11T01:37:39;32.47;;;15.50;;
31270;SDS011;17904;47.420;9.310;2023-02-11T01:40:10;29.92;;;13.38;;
31270;SDS011;17904;47.420;9.310;2023-02-11T01:42:39;26.10;;;13.43;;
31270;SDS011;17904;47.420;9.310;2023-02-11T01:48:13;25.88;;;11.48;;
31270;SDS011;17904;47.420;9.310;2023-02-11T01:50:47;18.90;;;10.45;;
31270;SDS011;17904;47.420;9.310;2023-02-11T01:53:18;22.15;;;10.80;;
31270;SDS011;17904;47.420;9.310;2023-02-11T01:56:04;21.65;;;11.07;;
31270;SDS011;17904;47.420;9.310;2023-02-11T01:58:53;20.67;;;10.68;;
31270;SDS011;17904;47.420;9.310;2023-02-11T02:01:26;23.05;;;11.00;;
31270;SDS011;17904;47.420;9.310;2023-02-11T02:03:58;21.73;;;10.88;;
31270;SDS011;17904;47.420;9.310;2023-02-11T02:06:30;19.20;;;10.15;;
31270;SDS011;17904;47.420;9.310;2023-02-11T02:09:07;18.67;;;10.30;;
31270;SDS011;17904;47.420;9.310;2023-02-11T02:11:38;26.73;;;11.07;;
31270;SDS011;17904;47.420;9.310;2023-02-11T02:14:04;18.67;;;9.95;;
31270;SDS011;17904;47.420;9.310;2023-02-11T02:16:34;21.17;;;10.60;;
31270;SDS011;17904;47.420;9.310;2023-02-11T02:22:14;20.67;;;10.10;;
31270;SDS011;17904;47.420;9.310;2023-02-11T02:24:59;17.23;;;8.88;;
31270;SDS011;17904;47.420;9.310;2023-02-11T02:33:32;18.50;;;8.18;;
31270;SDS011;17904;47.420;9.310;2023-02-11T02:36:08;19.25;;;9.73;;
31270;SDS011;17904;47.420;9.310;2023-02-11T02:38:53;20.17;;;9.18;;
31270;SDS011;17904;47.420;9.310;2023-02-11T02:41:26;21.52;;;9.80;;
31270;SDS011;17904;47.420;9.310;2023-02-11T02:43:57;15.32;;;7.90;;
31270;SDS011;17904;47.420;9.310;2023-02-11T02:46:26;15.85;;;9.10;;
31270;SDS011;17904;47.420;9.310;2023-02-11T02:48:55;16.17;;;9.20;;
31270;SDS011;17904;47.420;9.310;2023-02-11T03:02:54;16.55;;;8.27;;
31270;SDS011;17904;47.420;9.310;2023-02-11T03:05:56;18.95;;;9.65;;
31270;SDS011;17904;47.420;9.310;2023-02-11T03:08:32;18.60;;;9.30;;
31270;SDS011;17904;47.420;9.310;2023-02-11T03:11:05;18.98;;;9.35;;
31270;SDS011;17904;47.420;9.310;2023-02-11T03:13:35;13.15;;;7.90;;
31270;SDS011;17904;47.420;9.310;2023-02-11T03:16:08;19.92;;;10.48;;
31270;SDS011;17904;47.420;9.310;2023-02-11T03:21:33;17.67;;;9.00;;
31270;SDS011;17904;47.420;9.310;2023-02-11T03:24:05;21.42;;;9.98;;
31270;SDS011;17904;47.420;9.310;2023-02-11T03:26:37;16.65;;;9.13;;
31270;SDS011;17904;47.420;9.310;2023-02-11T03:32:04;16.98;;;10.05;;
31270;SDS011;17904;47.420;9.310;2023-02-11T03:37:31;20.65;;;10.43;;
31270;SDS011;17904;47.420;9.310;2023-02-11T03:40:14;20.80;;;9.57;;
31270;SDS011;17904;47.420;9.310;2023-02-11T03:42:58;17.60;;;9.73;;
31270;SDS011;17904;47.420;9.310;2023-02-11T03:45:30;20.80;;;10.82;;
31270;SDS011;17904;47.420;9.310;2023-02-11T03:48:00;20.50;;;9.73;;
31270;SDS011;17904;47.420;9.310;2023-02-11T03:50:41;18.05;;;9.35;;
31270;SDS011;17904;47.420;9.310;2023-02-11T03:53:10;16.88;;;9.30;;
31270;SDS011;17904;47.420;9.310;2023-02-11T03:55:38;17.88;;;9.38;;
31270;SDS011;17904;47.420;9.310;2023-02-11T03:58:07;19.38;;;10.20;;
31270;SDS011;17904;47.420;9.310;2023-02-11T04:00:35;21.42;;;10.50;;
31270;SDS011;17904;47.420;9.310;2023-02-11T04:03:04;24.90;;;11.55;;
31270;SDS011;17904;47.420;9.310;2023-02-11T04:05:32;20.80;;;10.93;;
31270;SDS011;17904;47.420;9.310;2023-02-11T04:07:59;16.20;;;9.30;;
31270;SDS011;17904;47.420;9.310;2023-02-11T04:10:26;20.85;;;9.60;;
31270;SDS011;17904;47.420;9.310;2023-02-11T04:15:21;22.52;;;9.45;;
31270;SDS011;17904;47.420;9.310;2023-02-11T04:17:48;18.27;;;10.32;;
31270;SDS011;17904;47.420;9.310;2023-02-11T04:20:15;22.38;;;10.57;;
31270;SDS011;17904;47.420;9.310;2023-02-11T04:22:42;19.52;;;10.23;;
31270;SDS011;17904;47.420;9.310;2023-02-11T04:25:09;16.42;;;8.60;;
31270;SDS011;17904;47.420;9.310;2023-02-11T04:27:35;16.85;;;9.68;;
31270;SDS011;17904;47.420;9.310;2023-02-11T04:30:03;18.17;;;9.25;;
31270;SDS011;17904;47.420;9.310;2023-02-11T04:32:31;16.63;;;9.02;;
31270;SDS011;17904;47.420;9.310;2023-02-11T04:34:57;20.92;;;9.75;;
31270;SDS011;17904;47.420;9.310;2023-02-11T04:37:24;17.27;;;9.57;;
31270;SDS011;17904;47.420;9.310;2023-02-11T04:39:51;16.48;;;9.63;;
31270;SDS011;17904;47.420;9.310;2023-02-11T04:42:17;19.38;;;10.07;;
31270;SDS011;17904;47.420;9.310;2023-02-11T04:47:11;19.13;;;9.32;;
31270;SDS011;17904;47.420;9.310;2023-02-11T04:49:40;19.60;;;9.45;;
31270;SDS011;17904;47.420;9.310;2023-02-11T04:52:07;17.70;;;9.65;;
31270;SDS011;17904;47.420;9.310;2023-02-11T04:54:34;19.00;;;8.90;;
31270;SDS011;17904;47.420;9.310;2023-02-11T04:57:01;17.30;;;9.57;;
31270;SDS011;17904;47.420;9.310;2023-02-11T04:59:28;17.77;;;10.18;;
31270;SDS011;17904;47.420;9.310;2023-02-11T05:01:55;17.98;;;10.40;;
31270;SDS011;17904;47.420;9.310;2023-02-11T05:04:22;16.65;;;9.05;;
31270;SDS011;17904;47.420;9.310;2023-02-11T05:06:48;15.15;;;9.70;;
31270;SDS011;17904;47.420;9.310;2023-02-11T05:09:15;17.60;;;9.73;;
31270;SDS011;17904;47.420;9.310;2023-02-11T05:11:42;16.83;;;9.63;;
31270;SDS011;17904;47.420;9.310;2023-02-11T05:14:09;18.55;;;9.02;;
31270;SDS011;17904;47.420;9.310;2023-02-11T05:16:36;17.85;;;9.13;;
31270;SDS011;17904;47.420;9.310;2023-02-11T05:19:03;21.65;;;10.68;;
31270;SDS011;17904;47.420;9.310;2023-02-11T05:21:30;22.38;;;10.52;;
31270;SDS011;17904;47.420;9.310;2023-02-11T05:23:56;17.83;;;10.73;;
31270;SDS011;17904;47.420;9.310;2023-02-11T05:26:23;14.65;;;9.05;;
31270;SDS011;17904;47.420;9.310;2023-02-11T05:28:50;18.45;;;9.07;;
31270;SDS011;17904;47.420;9.310;2023-02-11T05:31:17;16.95;;;8.40;;
31270;SDS011;17904;47.420;9.310;2023-02-11T05:33:44;18.05;;;9.32;;
31270;SDS011;17904;47.420;9.310;2023-02-11T05:36:11;17.42;;;8.63;;
31270;SDS011;17904;47.420;9.310;2023-02-11T05:38:39;16.73;;;9.18;;
31270;SDS011;17904;47.420;9.310;2023-02-11T05:41:07;14.80;;;8.00;;
31270;SDS011;17904;47.420;9.310;2023-02-11T05:43:35;15.13;;;7.90;;
31270;SDS011;17904;47.420;9.310;2023-02-11T05:46:02;17.55;;;8.38;;
31270;SDS011;17904;47.420;9.310;2023-02-11T05:48:30;17.80;;;8.27;;
31270;SDS011;17904;47.420;9.310;2023-02-11T05:50:57;15.68;;;8.27;;
31270;SDS011;17904;47.420;9.310;2023-02-11T05:53:24;12.65;;;7.13;;
31270;SDS011;17904;47.420;9.310;2023-02-11T05:55:51;15.35;;;7.88;;
31270;SDS011;17904;47.420;9.310;2023-02-11T05:58:18;16.17;;;7.88;;
31270;SDS011;17904;47.420;9.310;2023-02-11T06:00:44;17.65;;;7.20;;
31270;SDS011;17904;47.420;9.310;2023-02-11T06:03:11;18.17;;;8.32;;
31270;SDS011;17904;47.420;9.310;2023-02-11T06:05:38;17.10;;;9.38;;
31270;SDS011;17904;47.420;9.310;2023-02-11T06:08:05;15.75;;;8.07;;
31270;SDS011;17904;47.420;9.310;2023-02-11T06:12:58;16.58;;;8.05;;
31270;SDS011;17904;47.420;9.310;2023-02-11T06:15:27;12.18;;;6.38;;
31270;SDS011;17904;47.420;9.310;2023-02-11T06:17:54;12.73;;;7.07;;
31270;SDS011;17904;47.420;9.310;2023-02-11T06:20:21;14.05;;;7.72;;
31270;SDS011;17904;47.420;9.310;2023-02-11T06:22:48;16.67;;;7.55;;
31270;SDS011;17904;47.420;9.310;2023-02-11T06:25:14;15.00;;;8.05;;
31270;SDS011;17904;47.420;9.310;2023-02-11T06:27:41;21.65;;;8.68;;
31270;SDS011;17904;47.420;9.310;2023-02-11T06:30:08;20.05;;;8.40;;
31270;SDS011;17904;47.420;9.310;2023-02-11T06:32:35;15.98;;;8.10;;
31270;SDS011;17904;47.420;9.310;2023-02-11T06:35:10;15.75;;;7.82;;
31270;SDS011;17904;47.420;9.310;2023-02-11T06:37:38;15.80;;;7.40;;
31270;SDS011;17904;47.420;9.310;2023-02-11T06:40:05;19.88;;;8.38;;
31270;SDS011;17904;47.420;9.310;2023-02-11T06:42:32;12.23;;;6.40;;
31270;SDS011;17904;47.420;9.310;2023-02-11T06:45:01;14.07;;;7.35;;
31270;SDS011;17904;47.420;9.310;2023-02-11T06:47:31;15.30;;;7.40;;
31270;SDS011;17904;47.420;9.310;2023-02-11T06:49:57;14.57;;;7.95;;
31270;SDS011;17904;47.420;9.310;2023-02-11T06:54:51;15.25;;;8.73;;
31270;SDS011;17904;47.420;9.310;2023-02-11T06:59:44;11.90;;;5.93;;
31270;SDS011;17904;47.420;9.310;2023-02-11T07:04:37;13.23;;;7.45;;
31270;SDS011;17904;47.420;9.310;2023-02-11T07:07:04;11.45;;;6.43;;
31270;SDS011;17904;47.420;9.310;2023-02-11T07:09:31;17.20;;;9.25;;
31270;SDS011;17904;47.420;9.310;2023-02-11T07:11:58;16.02;;;8.50;;
31270;SDS011;17904;47.420;9.310;2023-02-11T07:14:24;16.27;;;8.00;;
31270;SDS011;17904;47.420;9.310;2023-02-11T07:19:18;13.82;;;7.70;;
31270;SDS011;17904;47.420;9.310;2023-02-11T07:21:45;13.75;;;6.90;;
31270;SDS011;17904;47.420;9.310;2023-02-11T07:26:38;19.70;;;8.30;;
31270;SDS011;17904;47.420;9.310;2023-02-11T07:29:05;16.98;;;8.70;;
31270;SDS011;17904;47.420;9.310;2023-02-11T07:31:32;16.15;;;8.98;;
31270;SDS011;17904;47.420;9.310;2023-02-11T07:33:59;17.90;;;9.25;;
31270;SDS011;17904;47.420;9.310;2023-02-11T07:36:27;23.85;;;9.15;;
31270;SDS011;17904;47.420;9.310;2023-02-11T07:38:55;21.20;;;11.38;;
31270;SDS011;17904;47.420;9.310;2023-02-11T07:41:22;21.23;;;9.43;;
31270;SDS011;17904;47.420;9.310;2023-02-11T07:43:50;22.90;;;11.57;;
31270;SDS011;17904;47.420;9.310;2023-02-11T07:46:19;21.88;;;11.07;;
31270;SDS011;17904;47.420;9.310;2023-02-11T07:48:47;19.13;;;11.05;;
31270;SDS011;17904;47.420;9.310;2023-02-11T07:51:15;23.70;;;11.73;;
31270;SDS011;17904;47.420;9.310;2023-02-11T07:53:49;22.80;;;11.20;;
31270;SDS011;17904;47.420;9.310;2023-02-11T07:56:17;25.30;;;11.88;;
31270;SDS011;17904;47.420;9.310;2023-02-11T07:58:45;18.73;;;9.35;;
31270;SDS011;17904;47.420;9.310;2023-02-11T08:01:13;14.75;;;8.40;;
31270;SDS011;17904;47.420;9.310;2023-02-11T08:03:42;20.42;;;9.40;;
31270;SDS011;17904;47.420;9.310;2023-02-11T08:06:11;18.73;;;9.18;;
31270;SDS011;17904;47.420;9.310;2023-02-11T08:08:39;18.45;;;9.05;;
31270;SDS011;17904;47.420;9.310;2023-02-11T08:11:25;15.35;;;9.25;;
31270;SDS011;17904;47.420;9.310;2023-02-11T08:13:53;12.20;;;7.40;;
31270;SDS011;17904;47.420;9.310;2023-02-11T08:16:23;15.55;;;7.55;;
31270;SDS011;17904;47.420;9.310;2023-02-11T08:18:55;15.55;;;7.85;;
31270;SDS011;17904;47.420;9.310;2023-02-11T08:21:23;20.75;;;11.48;;
31270;SDS011;17904;47.420;9.310;2023-02-11T08:26:18;22.80;;;12.13;;
31270;SDS011;17904;47.420;9.310;2023-02-11T08:28:47;22.33;;;11.60;;
31270;SDS011;17904;47.420;9.310;2023-02-11T08:31:19;20.67;;;11.25;;
31270;SDS011;17904;47.420;9.310;2023-02-11T08:33:47;24.55;;;12.00;;
31270;SDS011;17904;47.420;9.310;2023-02-11T08:36:15;26.40;;;13.38;;
31270;SDS011;17904;47.420;9.310;2023-02-11T08:38:44;25.30;;;12.07;;
31270;SDS011;17904;47.420;9.310;2023-02-11T08:41:11;26.33;;;13.75;;
31270;SDS011;17904;47.420;9.310;2023-02-11T08:43:42;24.48;;;13.23;;
31270;SDS011;17904;47.420;9.310;2023-02-11T08:46:13;27.75;;;15.25;;
31270;SDS011;17904;47.420;9.310;2023-02-11T08:48:43;27.45;;;13.95;;
31270;SDS011;17904;47.420;9.310;2023-02-11T08:51:15;23.08;;;13.60;;
31270;SDS011;17904;47.420;9.310;2023-02-11T08:53:47;26.80;;;13.35;;
31270;SDS011;17904;47.420;9.310;2023-02-11T08:56:14;24.42;;;13.10;;
31270;SDS011;17904;47.420;9.310;2023-02-11T08:58:42;25.40;;;13.07;;
31270;SDS011;17904;47.420;9.310;2023-02-11T09:01:13;26.85;;;14.23;;
31270;SDS011;17904;47.420;9.310;2023-02-11T09:03:51;26.30;;;13.48;;
31270;SDS011;17904;47.420;9.310;2023-02-11T09:06:18;30.95;;;16.02;;
31270;SDS011;17904;47.420;9.310;2023-02-11T09:08:46;37.13;;;15.18;;
31270;SDS011;17904;47.420;9.310;2023-02-11T09:11:15;26.90;;;14.23;;
31270;SDS011;17904;47.420;9.310;2023-02-11T09:13:48;23.65;;;13.00;;
31270;SDS011;17904;47.420;9.310;2023-02-11T09:16:20;25.13;;;12.77;;
31270;SDS011;17904;47.420;9.310;2023-02-11T09:18:48;22.70;;;12.18;;
31270;SDS011;17904;47.420;9.310;2023-02-11T09:21:15;26.60;;;13.63;;
31270;SDS011;17904;47.420;9.310;2023-02-11T09:23:44;26.15;;;12.80;;
31270;SDS011;17904;47.420;9.310;2023-02-11T09:26:16;26.75;;;11.52;;
31270;SDS011;17904;47.420;9.310;2023-02-11T09:28:45;23.17;;;13.05;;
31270;SDS011;17904;47.420;9.310;2023-02-11T09:31:14;24.52;;;13.32;;
31270;SDS011;17904;47.420;9.310;2023-02-11T09:33:43;27.05;;;13.30;;
31270;SDS011;17904;47.420;9.310;2023-02-11T09:36:18;22.77;;;12.43;;
31270;SDS011;17904;47.420;9.310;2023-02-11T09:38:46;26.55;;;15.25;;
31270;SDS011;17904;47.420;9.310;2023-02-11T09:41:22;29.48;;;14.35;;
31270;SDS011;17904;47.420;9.310;2023-02-11T09:43:59;31.73;;;14.77;;
31270;SDS011;17904;47.420;9.310;2023-02-11T09:46:32;30.55;;;15.95;;
31270;SDS011;17904;47.420;9.310;2023-02-11T09:49:06;29.65;;;17.20;;
31270;SDS011;17904;47.420;9.310;2023-02-11T09:51:43;28.17;;;14.40;;
31270;SDS011;17904;47.420;9.310;2023-02-11T09:56:51;29.85;;;17.30;;
31270;SDS011;17904;47.420;9.310;2023-02-11T09:59:17;32.88;;;17.65;;
31270;SDS011;17904;47.420;9.310;2023-02-11T10:07:37;40.58;;;21.60;;
31270;SDS011;17904;47.420;9.310;2023-02-11T10:10:12;38.55;;;20.13;;
31270;SDS011;17904;47.420;9.310;2023-02-11T10:15:46;39.38;;;19.23;;
31270;SDS011;17904;47.420;9.310;2023-02-11T10:18:42;31.25;;;18.30;;
31270;SDS011;17904;47.420;9.310;2023-02-11T10:21:30;36.58;;;20.40;;
31270;SDS011;17904;47.420;9.310;2023-02-11T10:24:18;37.67;;;21.52;;
31270;SDS011;17904;47.420;9.310;2023-02-11T10:26:45;42.72;;;24.08;;
31270;SDS011;17904;47.420;9.310;2023-02-11T10:29:20;46.15;;;24.40;;
31270;SDS011;17904;47.420;9.310;2023-02-11T10:32:14;42.40;;;23.88;;
31270;SDS011;17904;47.420;9.310;2023-02-11T10:35:11;42.80;;;22.85;;
31270;SDS011;17904;47.420;9.310;2023-02-11T10:37:43;40.38;;;23.25;;
31270;SDS011;17904;47.420;9.310;2023-02-11T10:40:21;46.17;;;22.42;;
31270;SDS011;17904;47.420;9.310;2023-02-11T10:42:50;42.53;;;24.15;;
31270;SDS011;17904;47.420;9.310;2023-02-11T10:45:43;39.50;;;21.83;;
31270;SDS011;17904;47.420;9.310;2023-02-11T10:53:43;38.55;;;22.55;;
31270;SDS011;17904;47.420;9.310;2023-02-11T10:56:11;48.10;;;24.45;;
31270;SDS011;17904;47.420;9.310;2023-02-11T10:58:54;42.47;;;23.95;;
31270;SDS011;17904;47.420;9.310;2023-02-11T11:01:44;43.40;;;24.83;;
31270;SDS011;17904;47.420;9.310;2023-02-11T11:04:29;44.47;;;23.30;;
31270;SDS011;17904;47.420;9.310;2023-02-11T11:07:19;48.33;;;26.30;;
31270;SDS011;17904;47.420;9.310;2023-02-11T11:12:35;49.35;;;25.50;;
31270;SDS011;17904;47.420;9.310;2023-02-11T11:15:14;53.17;;;27.70;;
31270;SDS011;17904;47.420;9.310;2023-02-11T11:17:43;51.80;;;26.63;;
31270;SDS011;17904;47.420;9.310;2023-02-11T11:20:15;56.42;;;27.23;;
31270;SDS011;17904;47.420;9.310;2023-02-11T11:22:53;48.90;;;26.85;;
31270;SDS011;17904;47.420;9.310;2023-02-11T11:26:06;50.58;;;25.75;;
31270;SDS011;17904;47.420;9.310;2023-02-11T11:28:38;54.08;;;29.25;;
31270;SDS011;17904;47.420;9.310;2023-02-11T11:31:33;49.22;;;27.25;;
31270;SDS011;17904;47.420;9.310;2023-02-11T11:34:19;48.00;;;27.35;;
31270;SDS011;17904;47.420;9.310;2023-02-11T11:36:55;46.55;;;26.45;;
31270;SDS011;17904;47.420;9.310;2023-02-11T11:44:28;47.10;;;26.10;;
31270;SDS011;17904;47.420;9.310;2023-02-11T11:55:00;36.03;;;20.80;;
31270;SDS011;17904;47.420;9.310;2023-02-11T11:58:01;39.80;;;20.73;;
31270;SDS011;17904;47.420;9.310;2023-02-11T12:00:34;41.45;;;22.92;;
31270;SDS011;17904;47.420;9.310;2023-02-11T12:17:18;44.80;;;26.88;;
31270;SDS011;17904;47.420;9.310;2023-02-11T12:22:52;45.05;;;27.08;;
31270;SDS011;17904;47.420;9.310;2023-02-11T12:25:50;39.92;;;24.67;;
31270;SDS011;17904;47.420;9.310;2023-02-11T12:37:13;39.40;;;22.25;;
31270;SDS011;17904;47.420;9.310;2023-02-11T12:49:21;45.83;;;23.17;;
31270;SDS011;17904;47.420;9.310;2023-02-11T12:52:22;33.70;;;22.23;;
31270;SDS011;17904;47.420;9.310;2023-02-11T12:57:47;29.83;;;19.80;;
31270;SDS011;17904;47.420;9.310;2023-02-11T13:03:03;40.33;;;23.83;;
31270;SDS011;17904;47.420;9.310;2023-02-11T13:05:39;37.13;;;22.88;;
31270;SDS011;17904;47.420;9.310;2023-02-11T13:10:57;41.33;;;23.95;;
31270;SDS011;17904;47.420;9.310;2023-02-11T13:13:33;38.83;;;23.30;;
31270;SDS011;17904;47.420;9.310;2023-02-11T13:16:05;37.50;;;24.95;;
31270;SDS011;17904;47.420;9.310;2023-02-11T13:18:46;37.17;;;25.90;;
31270;SDS011;17904;47.420;9.310;2023-02-11T13:29:42;38.40;;;25.25;;
31270;SDS011;17904;47.420;9.310;2023-02-11T13:35:25;44.10;;;29.48;;
31270;SDS011;17904;47.420;9.310;2023-02-11T13:38:01;37.78;;;25.95;;
31270;SDS011;17904;47.420;9.310;2023-02-11T13:40:42;42.88;;;27.40;;
31270;SDS011;17904;47.420;9.310;2023-02-11T13:43:20;37.45;;;26.17;;
31270;SDS011;17904;47.420;9.310;2023-02-11T13:45:50;38.90;;;26.35;;
31270;SDS011;17904;47.420;9.310;2023-02-11T13:48:30;39.10;;;26.58;;
31270;SDS011;17904;47.420;9.310;2023-02-11T13:51:32;36.97;;;25.58;;
31270;SDS011;17904;47.420;9.310;2023-02-11T13:54:04;35.55;;;23.92;;
31270;SDS011;17904;47.420;9.310;2023-02-11T13:59:02;39.70;;;26.67;;
31270;SDS011;17904;47.420;9.310;2023-02-11T14:01:37;45.88;;;25.50;;
31270;SDS011;17904;47.420;9.310;2023-02-11T14:04:20;39.42;;;25.65;;
31270;SDS011;17904;47.420;9.310;2023-02-11T14:13:12;34.58;;;21.67;;
31270;SDS011;17904;47.420;9.310;2023-02-11T14:16:03;34.05;;;23.05;;
31270;SDS011;17904;47.420;9.310;2023-02-11T14:18:36;34.10;;;23.50;;
31270;SDS011;17904;47.420;9.310;2023-02-11T14:21:13;39.13;;;23.65;;
31270;SDS011;17904;47.420;9.310;2023-02-11T14:23:41;33.05;;;22.63;;
31270;SDS011;17904;47.420;9.310;2023-02-11T14:31:44;35.53;;;25.40;;
31270;SDS011;17904;47.420;9.310;2023-02-11T14:42:43;41.70;;;23.67;;
31270;SDS011;17904;47.420;9.310;2023-02-11T14:45:13;35.10;;;23.58;;
31270;SDS011;17904;47.420;9.310;2023-02-11T14:47:49;41.40;;;25.98;;
31270;SDS011;17904;47.420;9.310;2023-02-11T14:50:23;31.98;;;22.55;;
31270;SDS011;17904;47.420;9.310;2023-02-11T14:52:53;31.98;;;23.08;;
31270;SDS011;17904;47.420;9.310;2023-02-11T14:55:26;35.70;;;22.40;;
31270;SDS011;17904;47.420;9.310;2023-02-11T14:58:14;31.05;;;21.05;;
31270;SDS011;17904;47.420;9.310;2023-02-11T15:00:47;35.47;;;23.15;;
31270;SDS011;17904;47.420;9.310;2023-02-11T15:03:31;31.33;;;21.27;;
31270;SDS011;17904;47.420;9.310;2023-02-11T15:08:35;36.53;;;22.65;;
31270;SDS011;17904;47.420;9.310;2023-02-11T15:11:09;36.10;;;25.48;;
31270;SDS011;17904;47.420;9.310;2023-02-11T15:13:37;41.58;;;26.33;;
31270;SDS011;17904;47.420;9.310;2023-02-11T15:16:12;31.80;;;23.10;;
31270;SDS011;17904;47.420;9.310;2023-02-11T15:18:53;38.55;;;25.75;;
31270;SDS011;17904;47.420;9.310;2023-02-11T15:21:25;36.38;;;23.63;;
31270;SDS011;17904;47.420;9.310;2023-02-11T15:23:55;37.80;;;24.75;;
31270;SDS011;17904;47.420;9.310;2023-02-11T15:26:25;42.47;;;26.25;;
31270;SDS011;17904;47.420;9.310;2023-02-11T15:28:52;44.17;;;27.92;;
31270;SDS011;17904;47.420;9.310;2023-02-11T15:31:22;39.72;;;26.80;;
31270;SDS011;17904;47.420;9.310;2023-02-11T15:33:51;41.25;;;29.08;;
31270;SDS011;17904;47.420;9.310;2023-02-11T15:36:19;47.25;;;29.48;;
31270;SDS011;17904;47.420;9.310;2023-02-11T15:44:47;46.40;;;29.50;;
31270;SDS011;17904;47.420;9.310;2023-02-11T15:47:21;48.10;;;29.95;;
31270;SDS011;17904;47.420;9.310;2023-02-11T15:52:20;51.25;;;30.13;;
31270;SDS011;17904;47.420;9.310;2023-02-11T15:54:51;46.65;;;29.83;;
31270;SDS011;17904;47.420;9.310;2023-02-11T15:57:18;52.97;;;32.78;;
31270;SDS011;17904;47.420;9.310;2023-02-11T15:59:48;55.88;;;31.95;;
31270;SDS011;17904;47.420;9.310;2023-02-11T16:02:30;49.00;;;31.73;;
31270;SDS011;17904;47.420;9.310;2023-02-11T16:04:59;56.80;;;33.35;;
31270;SDS011;17904;47.420;9.310;2023-02-11T16:07:43;51.03;;;33.08;;
31270;SDS011;17904;47.420;9.310;2023-02-11T16:10:19;55.45;;;33.72;;
31270;SDS011;17904;47.420;9.310;2023-02-11T16:12:55;52.67;;;31.65;;
31270;SDS011;17904;47.420;9.310;2023-02-11T16:18:00;58.60;;;34.15;;
31270;SDS011;17904;47.420;9.310;2023-02-11T16:20:29;59.55;;;35.28;;
31270;SDS011;17904;47.420;9.310;2023-02-11T16:25:23;59.58;;;33.47;;
31270;SDS011;17904;47.420;9.310;2023-02-11T16:30:26;62.50;;;33.75;;
31270;SDS011;17904;47.420;9.310;2023-02-11T16:33:02;55.95;;;34.00;;
31270;SDS011;17904;47.420;9.310;2023-02-11T16:35:30;66.22;;;35.72;;
31270;SDS011;17904;47.420;9.310;2023-02-11T16:37:57;62.60;;;33.90;;
31270;SDS011;17904;47.420;9.310;2023-02-11T16:40:24;59.80;;;35.85;;
31270;SDS011;17904;47.420;9.310;2023-02-11T16:42:52;62.33;;;35.08;;
31270;SDS011;17904;47.420;9.310;2023-02-11T16:45:18;61.80;;;35.10;;
31270;SDS011;17904;47.420;9.310;2023-02-11T16:47:45;65.90;;;33.65;;
31270;SDS011;17904;47.420;9.310;2023-02-11T16:50:22;70.25;;;36.25;;
31270;SDS011;17904;47.420;9.310;2023-02-11T16:52:50;66.30;;;36.25;;
31270;SDS011;17904;47.420;9.310;2023-02-11T16:55:17;65.05;;;36.85;;
31270;SDS011;17904;47.420;9.310;2023-02-11T16:57:47;64.53;;;38.03;;
31270;SDS011;17904;47.420;9.310;2023-02-11T17:02:41;73.57;;;38.87;;
31270;SDS011;17904;47.420;9.310;2023-02-11T17:05:14;66.28;;;36.72;;
31270;SDS011;17904;47.420;9.310;2023-02-11T17:07:44;75.05;;;39.05;;
31270;SDS011;17904;47.420;9.310;2023-02-11T17:10:15;62.95;;;34.53;;
31270;SDS011;17904;47.420;9.310;2023-02-11T17:12:43;64.10;;;33.95;;
31270;SDS011;17904;47.420;9.310;2023-02-11T17:15:10;65.97;;;35.40;;
31270;SDS011;17904;47.420;9.310;2023-02-11T17:17:37;56.75;;;31.48;;
31270;SDS011;17904;47.420;9.310;2023-02-11T17:22:30;62.67;;;32.00;;
31270;SDS011;17904;47.420;9.310;2023-02-11T17:24:57;60.40;;;32.13;;
31270;SDS011;17904;47.420;9.310;2023-02-11T17:29:51;60.22;;;30.92;;
31270;SDS011;17904;47.420;9.310;2023-02-11T17:32:17;66.57;;;31.75;;
31270;SDS011;17904;47.420;9.310;2023-02-11T17:37:11;58.50;;;29.52;;
31270;SDS011;17904;47.420;9.310;2023-02-11T17:39:38;78.88;;;29.85;;
31270;SDS011;17904;47.420;9.310;2023-02-11T17:42:05;51.75;;;28.30;;
31270;SDS011;17904;47.420;9.310;2023-02-11T17:44:33;50.25;;;28.98;;
31270;SDS011;17904;47.420;9.310;2023-02-11T17:47:00;53.08;;;26.17;;
31270;SDS011;17904;47.420;9.310;2023-02-11T17:49:27;49.95;;;26.92;;
31270;SDS011;17904;47.420;9.310;2023-02-11T17:51:54;57.45;;;27.98;;
31270;SDS011;17904;47.420;9.310;2023-02-11T17:54:21;57.22;;;29.13;;
31270;SDS011;17904;47.420;9.310;2023-02-11T17:59:16;50.25;;;27.85;;
31270;SDS011;17904;47.420;9.310;2023-02-11T18:04:11;58.50;;;31.08;;
31270;SDS011;17904;47.420;9.310;2023-02-11T18:06:40;61.30;;;31.77;;
31270;SDS011;17904;47.420;9.310;2023-02-11T18:09:07;64.57;;;33.92;;
31270;SDS011;17904;47.420;9.310;2023-02-11T18:11:35;64.13;;;34.83;;